Time;durP1;ratioP1;P1;durP2;ratioP2;P2;SDS_P1;SDS_P2;PMS_P1;PMS_P2;Temp;Humidity;BMP_temperature;BMP_pressure;BME280_temperature;BME280_humidity;BME280_pressure;Samples;Min_cycle;Max_cycle;Signal;HPM_P1;HPM_P2
2021/04/08 00:01:41;;;;;;;6.22;2.65;;;18.30;33.60;;;;;;5096336;28;20016;-76
2021/04/08 00:04:06;;;;;;;6.35;2.83;;;18.40;33.60;;;;;;5096097;28;20058;-76
2021/04/08 00:06:32;;;;;;;7.57;2.90;;;18.40;33.60;;;;;;5096124;28;20051;-76
2021/04/08 00:08:57;;;;;;;6.80;2.60;;;18.40;33.60;;;;;;5096257;28;20036;-76
2021/04/08 00:11:23;;;;;;;6.60;2.78;;;18.40;33.60;;;;;;5095860;28;20024;-77
2021/04/08 00:13:49;;;;;;;5.47;2.30;;;18.40;33.60;;;;;;5096108;28;20135;-76
2021/04/08 00:16:14;;;;;;;7.78;3.38;;;18.30;33.60;;;;;;5095881;28;20022;-77
2021/04/08 00:18:41;;;;;;;4.93;2.40;;;18.40;33.60;;;;;;5096084;28;20060;-76
2021/04/08 00:21:07;;;;;;;6.60;2.85;;;18.40;33.50;;;;;;5095667;28;20070;-77
2021/04/08 00:23:32;;;;;;;6.25;3.10;;;18.30;33.60;;;;;;5095798;28;20539;-76
2021/04/08 00:25:58;;;;;;;7.47;2.60;;;18.30;33.60;;;;;;5094099;28;20070;-76
2021/04/08 00:28:25;;;;;;;5.57;2.90;;;18.30;33.50;;;;;;5096129;28;20028;-76
2021/04/08 00:30:50;;;;;;;6.50;3.20;;;18.30;33.60;;;;;;5095777;28;20039;-77
2021/04/08 00:33:17;;;;;;;6.25;2.90;;;18.30;33.60;;;;;;5095951;28;20032;-77
2021/04/08 00:35:43;;;;;;;5.90;2.55;;;18.30;33.60;;;;;;5094125;28;20043;-77
2021/04/08 00:38:09;;;;;;;7.05;2.80;;;18.30;33.60;;;;;;5095484;28;20158;-76
2021/04/08 00:40:36;;;;;;;6.65;2.58;;;18.30;33.60;;;;;;5095762;28;20035;-77
2021/04/08 00:43:01;;;;;;;6.40;3.10;;;18.20;33.60;;;;;;5095565;28;20103;-77
2021/04/08 00:45:27;;;;;;;5.60;2.58;;;18.30;33.60;;;;;;5095659;28;20124;-77
2021/04/08 00:47:53;;;;;;;6.00;2.90;;;18.30;33.60;;;;;;5095480;28;20059;-76
2021/04/08 00:50:20;;;;;;;6.20;2.60;;;18.20;33.50;;;;;;5095121;28;20051;-77
2021/04/08 00:52:56;;;;;;;6.65;3.00;;;18.20;33.60;;;;;;5095169;28;20036;-77
2021/04/08 00:55:24;;;;;;;7.05;2.90;;;18.20;33.60;;;;;;5095413;28;20024;-77
2021/04/08 00:57:51;;;;;;;7.90;3.00;;;18.30;33.60;;;;;;5095314;28;20023;-77
2021/04/08 01:00:17;;;;;;;6.90;3.30;;;18.20;33.60;;;;;;5094790;28;20024;-77
2021/04/08 01:02:42;;;;;;;7.22;3.70;;;18.20;33.60;;;;;;5094816;28;20500;-77
2021/04/08 01:05:09;;;;;;;8.27;3.72;;;18.20;33.60;;;;;;5094963;28;20039;-77
2021/04/08 01:07:37;;;;;;;6.75;3.47;;;18.20;33.60;;;;;;5094677;28;20467;-76
2021/04/08 01:10:04;;;;;;;6.13;2.75;;;18.20;33.50;;;;;;5095016;28;20024;-76
2021/04/08 01:12:30;;;;;;;8.18;3.33;;;18.20;33.60;;;;;;5094593;28;20102;-77
2021/04/08 01:14:56;;;;;;;8.23;3.50;;;18.20;33.60;;;;;;5094793;28;20031;-77
2021/04/08 01:17:27;;;;;;;6.55;3.17;;;18.20;33.50;;;;;;5094726;28;20039;-77
2021/04/08 01:20:18;;;;;;;7.45;3.60;;;18.20;33.60;;;;;;5094730;28;20024;-77
2021/04/08 01:23:20;;;;;;;7.05;2.85;;;18.20;33.60;;;;;;5094794;28;20048;-77
2021/04/08 01:26:24;;;;;;;6.47;2.83;;;18.20;33.50;;;;;;5094521;28;20031;-77
2021/04/08 01:29:07;;;;;;;6.70;3.13;;;18.20;33.60;;;;;;5094670;28;20035;-77
2021/04/08 01:31:33;;;;;;;5.82;2.83;;;18.20;33.60;;;;;;5093269;28;20387;-77
2021/04/08 01:34:07;;;;;;;6.75;3.08;;;18.20;33.60;;;;;;5094774;28;20085;-77
2021/04/08 01:36:35;;;;;;;5.80;2.80;;;18.20;33.60;;;;;;5094210;28;20055;-77
2021/04/08 01:39:06;;;;;;;6.20;2.80;;;18.20;33.60;;;;;;5094328;28;20036;-77
2021/04/08 01:41:42;;;;;;;9.27;3.28;;;18.20;33.60;;;;;;5094228;28;20020;-77
2021/04/08 01:44:24;;;;;;;6.20;2.72;;;18.20;33.50;;;;;;5094254;28;20486;-77
2021/04/08 01:46:57;;;;;;;7.03;3.33;;;18.10;33.50;;;;;;5094390;28;20077;-77
2021/04/08 01:49:26;;;;;;;6.97;3.00;;;18.20;33.50;;;;;;5094075;28;20055;-77
2021/04/08 01:51:53;;;;;;;7.75;3.30;;;18.10;33.50;;;;;;5094290;28;20092;-77
2021/04/08 01:54:20;;;;;;;7.15;3.50;;;18.10;33.50;;;;;;5094132;28;20060;-76
2021/04/08 01:56:47;;;;;;;7.72;2.95;;;18.10;33.50;;;;;;5094256;28;20020;-77
2021/04/08 01:59:15;;;;;;;7.85;3.35;;;18.20;33.50;;;;;;5093720;28;20115;-77
2021/04/08 02:01:42;;;;;;;6.25;2.75;;;18.10;33.50;;;;;;5093972;28;20471;-77
2021/04/08 02:04:10;;;;;;;5.43;2.40;;;18.10;33.50;;;;;;5094129;28;20027;-76
2021/04/08 02:06:39;;;;;;;6.53;3.13;;;18.10;33.60;;;;;;5093616;28;20379;-77
2021/04/08 02:09:05;;;;;;;7.43;3.67;;;18.10;33.50;;;;;;5094023;28;20121;-77
2021/04/08 02:11:32;;;;;;;7.22;3.58;;;18.10;33.50;;;;;;5091983;28;20032;-77
2021/04/08 02:13:59;;;;;;;8.65;3.58;;;18.10;33.50;;;;;;5093986;28;20468;-77
2021/04/08 02:16:25;;;;;;;7.40;3.20;;;18.10;33.50;;;;;;5093782;28;20019;-76
2021/04/08 02:18:53;;;;;;;7.75;3.28;;;18.10;33.50;;;;;;5093682;28;20034;-77
2021/04/08 02:21:20;;;;;;;8.00;3.28;;;18.10;33.50;;;;;;5093532;28;20048;-77
2021/04/08 02:23:47;;;;;;;8.02;3.17;;;18.10;33.50;;;;;;5092595;28;20025;-77
2021/04/08 02:26:17;;;;;;;6.45;3.15;;;18.10;33.50;;;;;;5092512;28;20027;-77
2021/04/08 02:28:44;;;;;;;7.85;3.42;;;18.10;33.50;;;;;;5093665;28;20020;-77
2021/04/08 02:31:10;;;;;;;5.93;3.08;;;18.10;33.50;;;;;;5093811;28;20028;-76
2021/04/08 02:33:38;;;;;;;6.18;2.97;;;18.10;33.50;;;;;;5093861;28;20068;-76
2021/04/08 02:36:04;;;;;;;7.10;3.20;;;18.10;33.50;;;;;;5093413;28;20016;-77
2021/04/08 02:38:32;;;;;;;6.35;3.17;;;18.10;33.50;;;;;;5093805;28;20025;-76
2021/04/08 02:40:59;;;;;;;6.72;2.92;;;18.10;33.50;;;;;;5093278;28;20387;-77
2021/04/08 02:43:25;;;;;;;7.28;3.15;;;18.10;33.50;;;;;;5093391;28;20031;-77
2021/04/08 02:45:51;;;;;;;6.50;3.17;;;18.10;33.50;;;;;;5093207;28;20024;-77
2021/04/08 02:48:18;;;;;;;8.82;3.13;;;18.10;33.50;;;;;;5093672;28;20341;-76
2021/04/08 02:50:49;;;;;;;6.47;2.65;;;18.10;33.50;;;;;;5093660;28;20032;-76
2021/04/08 02:53:52;;;;;;;8.45;3.60;;;18.10;33.50;;;;;;5093783;28;20028;-76
2021/04/08 02:56:36;;;;;;;6.15;3.15;;;18.00;33.50;;;;;;5092270;28;20020;-77
2021/04/08 02:59:11;;;;;;;6.82;3.08;;;18.10;33.50;;;;;;5093592;28;20043;-77
2021/04/08 03:01:48;;;;;;;8.05;3.38;;;18.00;33.50;;;;;;5093294;28;20365;-77
2021/04/08 03:04:17;;;;;;;5.78;2.65;;;18.00;33.50;;;;;;5093325;28;20024;-77
2021/04/08 03:06:43;;;;;;;7.75;3.40;;;18.00;33.50;;;;;;5093256;28;20121;-76
2021/04/08 03:09:10;;;;;;;6.88;3.10;;;18.10;33.50;;;;;;5093304;28;20379;-77
2021/04/08 03:11:36;;;;;;;7.53;3.13;;;18.10;33.50;;;;;;5093182;28;20056;-77
2021/04/08 03:14:07;;;;;;;7.10;3.45;;;18.00;33.50;;;;;;5093316;28;20060;-77
2021/04/08 03:16:42;;;;;;;6.88;3.33;;;18.00;33.50;;;;;;5093335;28;20025;-76
2021/04/08 03:19:12;;;;;;;8.43;3.53;;;18.00;33.40;;;;;;5092946;28;20028;-76
2021/04/08 03:21:38;;;;;;;6.88;3.00;;;18.00;33.50;;;;;;5093253;28;20056;-77
2021/04/08 03:24:04;;;;;;;7.72;3.15;;;18.00;33.40;;;;;;5094429;28;20471;-77
2021/04/08 03:26:30;;;;;;;7.10;2.72;;;18.00;33.50;;;;;;5096614;28;20491;-76
2021/04/08 03:28:57;;;;;;;6.32;3.15;;;18.00;33.40;;;;;;5097143;28;20099;-77
2021/04/08 03:31:23;;;;;;;5.90;2.58;;;18.00;33.40;;;;;;5096874;28;20054;-75
2021/04/08 03:33:51;;;;;;;7.82;3.22;;;18.00;33.40;;;;;;5096883;28;20404;-75
2021/04/08 03:36:17;;;;;;;7.28;3.22;;;18.00;33.40;;;;;;5096695;28;20016;-75
2021/04/08 03:38:44;;;;;;;7.95;2.95;;;18.00;33.40;;;;;;5096804;28;20028;-75
2021/04/08 03:41:11;;;;;;;8.20;2.70;;;18.00;33.40;;;;;;5096573;28;20085;-74
2021/04/08 03:43:37;;;;;;;6.00;2.72;;;18.00;33.40;;;;;;5097232;28;20387;-76
2021/04/08 03:46:05;;;;;;;7.80;2.72;;;18.00;33.40;;;;;;5097831;28;20032;-76
2021/04/08 03:48:33;;;;;;;7.53;2.90;;;18.00;33.40;;;;;;5098126;28;20039;-76
2021/04/08 03:51:00;;;;;;;8.38;3.10;;;18.00;33.40;;;;;;5097217;28;20035;-75
2021/04/08 03:53:27;;;;;;;6.72;2.83;;;18.00;33.40;;;;;;5096339;28;20035;-75
2021/04/08 03:55:55;;;;;;;5.80;2.70;;;18.00;33.40;;;;;;5096330;28;20484;-75
2021/04/08 03:58:23;;;;;;;6.10;2.83;;;18.00;33.40;;;;;;5096162;28;20165;-75
2021/04/08 04:00:49;;;;;;;7.47;3.33;;;18.00;33.40;;;;;;5096201;28;20020;-75
2021/04/08 04:03:15;;;;;;;6.03;2.75;;;18.00;33.40;;;;;;5096130;28;20463;-75
2021/04/08 04:05:43;;;;;;;5.28;2.47;;;18.00;33.30;;;;;;5096450;28;20111;-76
2021/04/08 04:08:10;;;;;;;6.03;2.95;;;18.00;33.40;;;;;;5096084;28;20123;-76
2021/04/08 04:10:37;;;;;;;6.90;2.90;;;18.00;33.40;;;;;;5095875;28;20020;-76
2021/04/08 04:13:04;;;;;;;7.72;3.03;;;18.00;33.30;;;;;;5095838;28;20028;-77
2021/04/08 04:15:33;;;;;;;6.25;2.78;;;18.00;33.30;;;;;;5095831;28;20353;-76
2021/04/08 04:18:03;;;;;;;9.00;3.05;;;18.00;33.30;;;;;;5096297;28;20032;-77
2021/04/08 04:20:28;;;;;;;6.57;2.88;;;18.10;33.20;;;;;;5095769;28;20035;-77
2021/04/08 04:22:54;;;;;;;8.13;3.03;;;18.10;33.20;;;;;;5096047;28;20054;-77
2021/04/08 04:25:20;;;;;;;6.82;2.63;;;18.10;33.20;;;;;;5096160;28;20020;-76
2021/04/08 04:27:45;;;;;;;7.15;3.08;;;18.10;33.20;;;;;;5094535;28;20437;-77
2021/04/08 04:30:12;;;;;;;5.70;2.67;;;18.20;33.10;;;;;;5095753;28;20073;-77
2021/04/08 04:32:37;;;;;;;7.57;3.20;;;18.20;33.10;;;;;;5095419;28;20031;-76
2021/04/08 04:35:03;;;;;;;7.38;3.20;;;18.20;33.10;;;;;;5075101;28;20086;-77
2021/04/08 04:37:29;;;;;;;6.05;2.60;;;18.20;33.10;;;;;;5074913;28;20037;-76
2021/04/08 04:39:54;;;;;;;6.93;2.97;;;18.30;33.10;;;;;;5074804;28;20476;-77
2021/04/08 04:42:20;;;;;;;7.30;2.88;;;18.30;33.10;;;;;;5074683;28;20056;-76
2021/04/08 04:44:45;;;;;;;6.97;2.90;;;18.30;33.00;;;;;;5074764;28;20021;-76
2021/04/08 04:47:11;;;;;;;6.70;2.40;;;18.30;33.00;;;;;;5074704;28;20035;-76
2021/04/08 04:49:36;;;;;;;7.18;2.83;;;18.30;33.00;;;;;;5074707;28;20031;-76
2021/04/08 04:52:03;;;;;;;6.60;2.70;;;18.40;33.00;;;;;;5074703;28;20081;-77
2021/04/08 04:54:28;;;;;;;7.40;2.75;;;18.30;33.00;;;;;;5074538;28;20056;-77
2021/04/08 04:56:54;;;;;;;5.47;2.50;;;18.40;33.00;;;;;;5074431;28;20434;-77
2021/04/08 04:59:19;;;;;;;5.47;2.50;;;18.40;33.00;;;;;;5074330;28;20024;-76
2021/04/08 05:01:45;;;;;;;7.97;3.05;;;18.40;33.00;;;;;;5074638;28;20020;-76
2021/04/08 05:04:11;;;;;;;6.55;2.47;;;18.40;33.00;;;;;;5074317;28;20476;-76
2021/04/08 05:06:36;;;;;;;7.68;3.20;;;18.50;33.00;;;;;;5074284;28;20025;-76
2021/04/08 05:09:02;;;;;;;7.18;2.92;;;18.50;32.90;;;;;;5074490;28;20025;-77
2021/04/08 05:11:28;;;;;;;6.60;2.88;;;18.50;32.90;;;;;;5073998;28;20016;-76
2021/04/08 05:13:54;;;;;;;6.07;2.72;;;18.50;32.90;;;;;;5074117;28;20109;-77
2021/04/08 05:16:19;;;;;;;6.90;2.58;;;18.50;32.90;;;;;;5074108;28;20025;-76
2021/04/08 05:18:45;;;;;;;7.28;2.60;;;18.50;32.90;;;;;;5089897;28;20025;-77
2021/04/08 05:21:10;;;;;;;5.63;2.20;;;18.50;33.00;;;;;;5073684;28;20045;-77
2021/04/08 05:23:36;;;;;;;6.75;2.50;;;18.50;32.90;;;;;;5073883;28;20108;-76
2021/04/08 05:26:02;;;;;;;4.95;2.30;;;18.60;32.90;;;;;;5073920;28;20392;-76
2021/04/08 05:28:28;;;;;;;5.28;2.28;;;18.60;32.90;;;;;;5073908;28;20486;-76
2021/04/08 05:30:54;;;;;;;6.70;2.97;;;18.60;32.90;;;;;;5073845;28;20036;-77
2021/04/08 05:33:19;;;;;;;4.82;2.25;;;18.60;32.90;;;;;;5073631;28;20040;-77
2021/04/08 05:35:45;;;;;;;6.00;2.40;;;18.60;32.90;;;;;;5073667;28;20476;-77
2021/04/08 05:38:11;;;;;;;5.60;2.20;;;18.60;32.90;;;;;;5073637;28;20468;-75
2021/04/08 05:40:37;;;;;;;5.88;2.60;;;18.60;32.80;;;;;;5073630;28;20021;-75
2021/04/08 05:43:02;;;;;;;5.35;2.45;;;18.70;32.80;;;;;;5089269;28;20490;-75
2021/04/08 05:45:30;;;;;;;6.60;2.60;;;18.70;32.80;;;;;;5071530;28;20037;-75
2021/04/08 05:47:56;;;;;;;6.95;2.40;;;18.70;32.90;;;;;;5073451;28;20375;-75
2021/04/08 05:50:22;;;;;;;5.40;2.28;;;18.70;32.80;;;;;;5073314;28;20021;-74
2021/04/08 05:52:47;;;;;;;6.40;2.38;;;18.70;32.80;;;;;;5073296;28;20115;-76
2021/04/08 05:55:13;;;;;;;4.85;2.03;;;18.70;32.80;;;;;;5073382;28;20028;-76
2021/04/08 05:57:38;;;;;;;5.05;2.20;;;18.70;32.80;;;;;;5073651;28;20032;-75
2021/04/08 06:00:06;;;;;;;7.78;2.63;;;18.80;32.80;;;;;;5073517;28;20476;-75
2021/04/08 06:02:32;;;;;;;4.47;2.10;;;18.80;32.80;;;;;;5073067;28;20024;-75
2021/04/08 06:04:58;;;;;;;6.22;2.10;;;18.80;32.80;;;;;;5073211;28;20021;-75
2021/04/08 06:07:23;;;;;;;5.70;2.20;;;18.80;32.80;;;;;;5073234;28;20130;-75
2021/04/08 06:09:49;;;;;;;4.95;2.00;;;18.80;32.80;;;;;;5073418;28;20028;-76
2021/04/08 06:12:15;;;;;;;5.13;2.30;;;18.80;32.80;;;;;;5073100;28;20029;-76
2021/04/08 06:14:40;;;;;;;6.95;2.67;;;18.80;32.80;;;;;;5073075;28;20028;-76
2021/04/08 06:17:06;;;;;;;4.93;2.17;;;18.80;32.80;;;;;;5073062;28;20059;-75
2021/04/08 06:19:32;;;;;;;6.75;2.03;;;18.90;32.80;;;;;;5073247;28;20533;-78
2021/04/08 06:22:01;;;;;;;5.35;2.15;;;18.90;32.70;;;;;;5072944;28;20047;-76
2021/04/08 06:24:27;;;;;;;6.60;3.25;;;18.90;32.70;;;;;;5072892;28;20460;-76
2021/04/08 06:26:53;;;;;;;8.57;2.75;;;18.90;32.70;;;;;;5072949;28;20464;-76
2021/04/08 06:29:18;;;;;;;5.28;1.92;;;18.90;32.70;;;;;;5073116;28;20028;-76
2021/04/08 06:31:44;;;;;;;4.38;2.00;;;18.90;32.80;;;;;;5072956;28;20074;-76
2021/04/08 06:34:10;;;;;;;7.43;2.22;;;19.00;32.70;;;;;;5072897;28;20078;-75
2021/04/08 06:36:36;;;;;;;4.65;2.03;;;19.00;32.70;;;;;;5073147;28;20372;-76
2021/04/08 06:39:01;;;;;;;5.85;2.08;;;19.00;32.60;;;;;;5072817;28;20035;-76
2021/04/08 06:41:27;;;;;;;5.70;1.85;;;19.00;32.70;;;;;;5072809;28;20074;-76
2021/04/08 06:43:54;;;;;;;6.40;2.15;;;19.00;32.70;;;;;;5071463;28;20047;-76
2021/04/08 06:46:24;;;;;;;5.72;2.00;;;19.00;32.70;;;;;;5072730;28;20052;-76
2021/04/08 06:49:09;;;;;;;4.20;1.92;;;19.00;32.70;;;;;;5072709;28;20111;-76
2021/04/08 06:51:38;;;;;;;5.88;2.13;;;19.00;32.70;;;;;;5072617;28;20016;-76
2021/04/08 06:54:04;;;;;;;4.35;1.85;;;19.10;32.70;;;;;;5072496;28;20480;-74
2021/04/08 06:56:31;;;;;;;5.68;2.20;;;19.10;32.70;;;;;;5072668;28;20483;-74
2021/04/08 06:58:57;;;;;;;6.78;2.45;;;19.00;32.80;;;;;;5076422;28;20028;-71
2021/04/08 07:01:24;;;;;;;7.18;1.83;;;19.10;32.60;;;;;;5073662;28;20078;-71
2021/04/08 07:03:51;;;;;;;5.88;2.33;;;19.10;32.70;;;;;;5074557;28;20017;-71
2021/04/08 07:06:17;;;;;;;6.53;2.30;;;19.20;32.70;;;;;;5075282;28;20025;-75
2021/04/08 07:08:44;;;;;;;4.95;1.80;;;19.20;32.70;;;;;;5075660;28;20029;-72
2021/04/08 07:11:10;;;;;;;4.75;2.10;;;19.20;32.70;;;;;;5076467;28;20025;-72
2021/04/08 07:13:36;;;;;;;7.45;2.03;;;19.20;32.70;;;;;;5075557;28;20123;-75
2021/04/08 07:16:02;;;;;;;6.18;2.08;;;19.20;32.70;;;;;;5075942;28;20111;-72
2021/04/08 07:18:28;;;;;;;7.38;2.35;;;19.10;32.90;;;;;;5075134;28;20449;-75
2021/04/08 07:20:55;;;;;;;7.35;2.60;;;19.00;33.10;;;;;;5075418;28;20052;-73
2021/04/08 07:23:21;;;;;;;11.43;3.55;;;18.80;33.50;;;;;;5075882;28;20051;-69
2021/04/08 07:26:03;;;;;;;8.05;2.50;;;18.80;33.10;;;;;;5075477;28;20035;-73
2021/04/08 07:28:33;;;;;;;7.32;2.55;;;18.80;33.40;;;;;;5074644;28;20036;-72
2021/04/08 07:31:21;;;;;;;8.25;2.38;;;18.90;33.40;;;;;;5076687;28;20035;-75
2021/04/08 07:33:47;;;;;;;10.52;2.13;;;19.10;33.40;;;;;;5077944;28;20090;-77
2021/04/08 07:36:25;;;;;;;6.32;1.73;;;19.10;33.50;;;;;;5076894;28;20046;-77
2021/04/08 07:38:50;;;;;;;6.63;2.17;;;19.20;33.50;;;;;;5075293;28;20434;-71
2021/04/08 07:41:42;;;;;;;8.55;1.92;;;19.20;33.50;;;;;;5075240;28;20020;-71
2021/04/08 07:44:10;;;;;;;6.35;2.15;;;19.30;33.60;;;;;;5066379;28;20048;-69
2021/04/08 07:46:41;;;;;;;12.48;2.40;;;19.30;33.70;;;;;;5054960;28;20029;-72
2021/04/08 07:49:46;;;;;;;7.40;2.05;;;19.30;33.80;;;;;;5065344;28;20025;-71
2021/04/08 07:52:25;;;;;;;8.00;2.35;;;19.30;33.80;;;;;;5012051;28;20061;-74
2021/04/08 07:54:55;;;;;;;8.43;2.03;;;19.30;33.90;;;;;;5012980;28;20045;-72
2021/04/08 07:57:21;;;;;;;5.03;1.88;;;19.30;33.80;;;;;;5037743;28;20508;-71
2021/04/08 07:59:46;;;;;;;6.72;2.17;;;19.40;33.90;;;;;;5054322;28;20032;-71
2021/04/08 08:02:12;;;;;;;6.75;1.95;;;19.40;33.80;;;;;;5069766;28;20079;-71
2021/04/08 08:04:38;;;;;;;6.55;2.00;;;19.40;33.80;;;;;;5054705;28;20473;-70
2021/04/08 08:07:03;;;;;;;5.65;1.98;;;19.40;33.70;;;;;;5054894;28;20424;-70
2021/04/08 08:09:31;;;;;;;6.35;2.28;;;19.50;33.70;;;;;;5053207;28;20032;-71
2021/04/08 08:12:08;;;;;;;9.13;2.10;;;19.40;33.70;;;;;;5069219;28;20107;-70
2021/04/08 08:14:43;;;;;;;6.60;2.58;;;19.50;33.70;;;;;;5094771;28;20032;-70
2021/04/08 08:17:10;;;;;;;6.68;2.08;;;19.50;33.70;;;;;;5093558;28;20024;-70
2021/04/08 08:19:41;;;;;;;5.72;2.00;;;19.50;33.70;;;;;;5094537;28;20016;-70
2021/04/08 08:22:07;;;;;;;5.43;2.10;;;19.50;33.70;;;;;;5092188;28;20076;-71
2021/04/08 08:24:33;;;;;;;6.50;1.80;;;19.50;33.60;;;;;;5094617;28;20107;-72
2021/04/08 08:26:59;;;;;;;7.32;2.00;;;19.50;33.70;;;;;;5094440;28;20043;-72
2021/04/08 08:29:30;;;;;;;4.75;1.90;;;19.50;33.60;;;;;;5094251;28;20020;-73
2021/04/08 08:32:00;;;;;;;6.32;2.05;;;19.50;33.60;;;;;;5093375;28;20491;-72
2021/04/08 08:34:33;;;;;;;7.38;2.10;;;19.50;33.60;;;;;;5094294;28;20024;-73
2021/04/08 08:37:10;;;;;;;4.47;1.88;;;19.50;33.60;;;;;;5094459;28;20097;-72
2021/04/08 08:39:39;;;;;;;5.90;2.40;;;19.50;33.60;;;;;;5094295;28;20460;-70
2021/04/08 08:42:09;;;;;;;8.93;1.90;;;19.50;33.50;;;;;;5093261;28;20035;-72
2021/04/08 08:44:35;;;;;;;5.85;1.83;;;19.50;33.50;;;;;;5094175;28;20498;-74
2021/04/08 08:47:24;;;;;;;6.43;1.80;;;19.60;33.50;;;;;;5094421;28;20111;-74
2021/04/08 08:49:54;;;;;;;4.50;1.63;;;19.60;33.50;;;;;;5094405;28;20074;-72
2021/04/08 08:52:36;;;;;;;4.40;1.67;;;19.60;33.50;;;;;;5093107;28;20040;-74
2021/04/08 08:55:07;;;;;;;5.18;1.88;;;19.60;33.50;;;;;;5094218;28;20076;-74
2021/04/08 08:57:32;;;;;;;6.43;2.10;;;19.60;33.50;;;;;;5094247;28;20475;-74
2021/04/08 08:59:58;;;;;;;4.68;1.50;;;19.60;33.50;;;;;;5094181;28;20032;-74
2021/04/08 09:02:24;;;;;;;7.18;1.70;;;19.60;33.40;;;;;;5092720;28;20525;-75
2021/04/08 09:04:50;;;;;;;5.57;2.15;;;19.60;33.40;;;;;;5093868;28;20056;-75
2021/04/08 09:07:16;;;;;;;8.05;1.80;;;19.60;33.40;;;;;;5094008;28;20511;-73
2021/04/08 09:09:48;;;;;;;4.63;1.63;;;19.60;33.50;;;;;;5093721;28;20025;-72
2021/04/08 09:12:17;;;;;;;5.47;1.80;;;19.60;33.50;;;;;;5092985;28;20028;-71
2021/04/08 09:14:47;;;;;;;3.92;1.90;;;19.60;33.40;;;;;;5093343;28;20112;-73
2021/04/08 09:17:33;;;;;;;4.38;1.65;;;19.70;33.40;;;;;;5093427;28;20384;-76
2021/04/08 09:20:04;;;;;;;4.13;1.55;;;19.70;33.30;;;;;;5093380;28;20221;-71
2021/04/08 09:22:30;;;;;;;5.20;1.80;;;19.60;33.30;;;;;;5091494;28;20101;-72
2021/04/08 09:24:56;;;;;;;5.30;1.65;;;19.60;33.30;;;;;;5093046;28;20231;-71
2021/04/08 09:27:23;;;;;;;6.00;1.92;;;19.50;33.40;;;;;;5093264;28;20430;-71
2021/04/08 09:29:53;;;;;;;5.43;1.70;;;19.60;33.40;;;;;;5093266;28;20042;-69
2021/04/08 09:32:34;;;;;;;6.15;1.75;;;19.60;33.40;;;;;;5092622;28;20032;-70
2021/04/08 09:35:08;;;;;;;6.22;1.80;;;19.60;33.40;;;;;;5092504;28;20059;-70
2021/04/08 09:37:46;;;;;;;3.40;1.42;;;19.60;33.30;;;;;;5091968;28;20073;-70
2021/04/08 09:40:30;;;;;;;5.60;1.70;;;19.60;33.30;;;;;;5092903;28;20142;-71
2021/04/08 09:43:05;;;;;;;6.97;1.70;;;19.60;33.30;;;;;;5070944;28;20032;-69
2021/04/08 09:45:34;;;;;;;4.97;1.52;;;19.60;33.20;;;;;;5071143;28;20487;-72
2021/04/08 09:48:10;;;;;;;4.25;1.70;;;19.60;33.00;;;;;;5064713;28;20032;-69
2021/04/08 09:50:46;;;;;;;5.53;1.70;;;19.50;33.30;;;;;;5052399;28;20032;-75
2021/04/08 09:53:13;;;;;;;4.55;1.63;;;19.60;33.30;;;;;;5052168;28;20033;-71
2021/04/08 09:55:41;;;;;;;6.93;1.80;;;19.60;33.30;;;;;;5056292;28;20124;-70
2021/04/08 09:58:07;;;;;;;6.95;1.73;;;19.60;33.20;;;;;;5052322;28;20384;-69
2021/04/08 10:00:33;;;;;;;4.75;1.73;;;19.60;33.20;;;;;;5050944;28;20377;-69
2021/04/08 10:03:00;;;;;;;4.65;1.60;;;19.60;33.30;;;;;;5067342;28;20032;-68
2021/04/08 10:05:37;;;;;;;5.82;1.70;;;19.60;33.20;;;;;;5067224;28;20100;-68
2021/04/08 10:08:05;;;;;;;5.70;1.55;;;19.60;33.20;;;;;;5052584;28;20029;-70
2021/04/08 10:10:36;;;;;;;4.82;1.20;;;19.70;33.10;;;;;;5067093;28;20044;-70
2021/04/08 10:13:18;;;;;;;4.50;1.45;;;19.70;33.10;;;;;;5064672;28;20063;-69
2021/04/08 10:15:44;;;;;;;5.10;1.52;;;19.70;33.00;;;;;;5057414;28;20079;-69
2021/04/08 10:18:24;;;;;;;4.97;1.60;;;19.80;32.90;;;;;;5065173;28;20522;-69
2021/04/08 10:20:53;;;;;;;5.97;1.50;;;19.70;33.00;;;;;;5051982;28;20131;-70
2021/04/08 10:23:31;;;;;;;4.72;1.40;;;19.70;33.00;;;;;;5052103;28;20345;-71
2021/04/08 10:25:58;;;;;;;5.13;1.13;;;19.80;33.10;;;;;;5067164;28;20095;-72
2021/04/08 10:28:24;;;;;;;7.25;1.90;;;19.70;33.20;;;;;;5055079;28;20024;-71
2021/04/08 10:30:50;;;;;;;6.22;1.75;;;19.70;33.10;;;;;;5056042;28;20029;-69
2021/04/08 10:33:18;;;;;;;4.53;1.55;;;19.80;33.20;;;;;;5061180;28;20357;-69
2021/04/08 10:35:44;;;;;;;4.50;1.50;;;19.80;33.20;;;;;;5053455;28;20040;-70
2021/04/08 10:38:09;;;;;;;4.32;1.58;;;19.80;33.20;;;;;;5067487;28;20392;-69
2021/04/08 10:40:37;;;;;;;3.90;1.40;;;19.80;33.30;;;;;;5071506;28;20021;-69
2021/04/08 10:43:11;;;;;;;4.95;1.60;;;19.70;33.30;;;;;;5056658;28;20029;-67
2021/04/08 10:45:37;;;;;;;4.78;1.55;;;19.70;33.30;;;;;;5061048;28;20029;-68
2021/04/08 10:48:06;;;;;;;4.88;1.50;;;19.70;33.20;;;;;;5071000;28;20040;-68
2021/04/08 10:50:31;;;;;;;4.57;1.33;;;19.80;33.30;;;;;;5055601;28;20025;-69
2021/04/08 10:52:59;;;;;;;2.55;0.95;;;19.80;33.20;;;;;;5054094;28;20514;-69
2021/04/08 10:55:26;;;;;;;4.15;1.40;;;19.80;33.20;;;;;;5061525;28;20460;-70
2021/04/08 10:57:51;;;;;;;4.15;1.55;;;19.80;33.20;;;;;;5067220;28;20036;-69
2021/04/08 11:00:18;;;;;;;3.85;1.23;;;19.70;33.20;;;;;;5061254;28;20075;-69
2021/04/08 11:02:45;;;;;;;3.92;1.27;;;19.80;33.20;;;;;;5071805;28;20096;-69
2021/04/08 11:05:18;;;;;;;5.90;1.50;;;19.70;33.30;;;;;;5080774;28;20050;-71
2021/04/08 11:07:49;;;;;;;3.08;1.17;;;19.70;33.20;;;;;;5056202;28;20024;-69
2021/04/08 11:10:21;;;;;;;4.32;1.10;;;19.70;33.20;;;;;;5071081;28;20030;-68
2021/04/08 11:12:48;;;;;;;4.70;1.23;;;19.60;33.10;;;;;;5052458;28;20037;-70
2021/04/08 11:15:14;;;;;;;3.63;1.27;;;19.60;33.10;;;;;;5052674;28;20017;-69
2021/04/08 11:17:51;;;;;;;4.32;1.40;;;19.70;33.10;;;;;;5072692;28;20037;-70
2021/04/08 11:20:28;;;;;;;8.02;1.40;;;19.70;33.00;;;;;;5062368;28;20089;-70
2021/04/08 11:22:54;;;;;;;2.92;1.10;;;19.80;33.10;;;;;;5081194;28;20060;-72
2021/04/08 11:25:22;;;;;;;5.03;1.67;;;19.70;33.00;;;;;;5069749;28;20040;-72
2021/04/08 11:27:53;;;;;;;3.58;1.13;;;19.80;33.00;;;;;;5051771;28;20112;-72
2021/04/08 11:30:45;;;;;;;3.78;1.35;;;19.80;33.00;;;;;;5062949;28;20032;-71
2021/04/08 11:33:19;;;;;;;4.20;1.30;;;19.80;33.00;;;;;;5061984;28;20040;-68
2021/04/08 11:35:45;;;;;;;3.88;1.35;;;19.80;32.90;;;;;;5063004;28;20029;-71
2021/04/08 11:38:17;;;;;;;3.47;1.15;;;19.80;32.90;;;;;;5069293;28;20064;-73
2021/04/08 11:41:11;;;;;;;5.82;1.42;;;19.80;32.80;;;;;;5082509;28;20020;-70
2021/04/08 11:43:44;;;;;;;2.90;1.10;;;19.90;32.80;;;;;;5084321;28;20039;-71
2021/04/08 11:46:30;;;;;;;4.68;1.20;;;19.90;32.80;;;;;;5096968;28;20028;-70
2021/04/08 11:48:57;;;;;;;3.15;1.38;;;19.90;32.80;;;;;;5073492;28;20024;-67
2021/04/08 11:51:24;;;;;;;6.00;1.58;;;19.90;32.90;;;;;;5066478;28;20472;-67
2021/04/08 11:53:51;;;;;;;3.28;1.20;;;20.00;32.70;;;;;;5068843;28;20392;-68
2021/04/08 11:57:03;;;;;;;2.22;0.95;;;20.00;32.60;;;;;;5066182;28;20065;-68
2021/04/08 11:59:33;;;;;;;3.33;1.10;;;20.00;32.60;;;;;;5012518;28;20593;-71
2021/04/08 12:01:59;;;;;;;6.82;1.10;;;20.00;32.60;;;;;;5007380;28;20488;-68
2021/04/08 12:04:27;;;;;;;6.43;1.00;;;20.00;32.40;;;;;;5043467;28;20074;-69
2021/04/08 12:06:58;;;;;;;6.22;1.40;;;20.00;32.50;;;;;;5072946;28;20067;-69
2021/04/08 12:09:34;;;;;;;3.88;1.23;;;20.00;32.50;;;;;;5055783;28;20036;-67
2021/04/08 12:12:00;;;;;;;3.30;1.10;;;20.10;32.30;;;;;;5061411;28;20572;-68
2021/04/08 12:14:26;;;;;;;5.00;1.45;;;20.20;32.10;;;;;;5056307;28;20116;-68
2021/04/08 12:17:06;;;;;;;3.63;1.10;;;20.20;32.10;;;;;;5061471;28;20362;-69
2021/04/08 12:19:33;;;;;;;4.35;1.17;;;20.20;32.10;;;;;;5074885;28;20021;-68
2021/04/08 12:22:10;;;;;;;2.30;0.88;;;20.20;32.10;;;;;;5073211;28;20131;-69
2021/04/08 12:24:36;;;;;;;4.13;1.27;;;20.30;31.90;;;;;;5074692;28;20029;-68
2021/04/08 12:27:02;;;;;;;3.10;1.27;;;20.30;31.90;;;;;;5071932;28;20028;-68
2021/04/08 12:29:28;;;;;;;3.85;1.27;;;20.30;31.90;;;;;;5074755;28;20028;-68
2021/04/08 12:31:54;;;;;;;5.20;1.23;;;20.30;31.90;;;;;;5062894;28;20036;-68
2021/04/08 12:34:21;;;;;;;4.13;1.33;;;20.40;31.90;;;;;;5064858;28;20040;-67
2021/04/08 12:36:47;;;;;;;4.28;1.10;;;20.40;31.90;;;;;;5057568;28;20055;-68
2021/04/08 12:39:13;;;;;;;2.55;1.00;;;20.50;31.70;;;;;;5054863;28;20029;-68
2021/04/08 12:41:39;;;;;;;3.35;1.10;;;20.50;31.60;;;;;;5088988;28;20043;-67
2021/04/08 12:44:05;;;;;;;3.30;1.05;;;20.50;31.60;;;;;;5066927;28;20029;-68
2021/04/08 12:46:32;;;;;;;2.60;0.90;;;20.50;31.70;;;;;;5063354;28;20108;-72
2021/04/08 12:48:57;;;;;;;4.97;1.40;;;20.40;31.80;;;;;;5056222;28;20033;-67
2021/04/08 12:51:23;;;;;;;3.95;1.35;;;20.40;31.80;;;;;;5053813;28;20041;-70
2021/04/08 12:53:48;;;;;;;5.22;1.20;;;20.30;31.90;;;;;;5054041;28;20045;-66
2021/04/08 12:56:15;;;;;;;2.83;0.98;;;20.30;31.90;;;;;;5060427;28;20021;-69